Time;durP1;ratioP1;P1;durP2;ratioP2;P2;SDS_P1;SDS_P2;PMS_P1;PMS_P2;Temp;Humidity;BMP_temperature;BMP_pressure;BME280_temperature;BME280_humidity;BME280_pressure;Samples;Min_cycle;Max_cycle;Signal;HPM_P1;HPM_P2
2022/03/16 00:01:05;;;;;;;46.90;29.90;;;;;;;;;;5030531;28;20424;-78
2022/03/16 00:03:31;;;;;;;44.05;28.92;;;;;;;;;;5033510;28;20053;-78
2022/03/16 00:05:57;;;;;;;45.03;30.90;;;;;;;;;;5032709;28;20056;-78
2022/03/16 00:08:23;;;;;;;48.97;30.05;;;;;;;;;;5033168;28;20037;-77
2022/03/16 00:10:52;;;;;;;44.72;30.58;;;;;;;;;;5032921;28;20041;-77
2022/03/16 00:13:21;;;;;;;50.67;30.90;;;;;;;;;;5017822;28;20102;-78
2022/03/16 00:15:47;;;;;;;43.13;29.23;;;;;;;;;;5032958;28;20049;-78
2022/03/16 00:18:13;;;;;;;40.67;29.30;;;;;;;;;;5015224;28;20056;-78
2022/03/16 00:20:46;;;;;;;40.20;25.88;;;;;;;;;;5049847;28;20413;-78
2022/03/16 00:23:12;;;;;;;40.67;27.63;;;;;;;;;;5016055;28;20063;-78
2022/03/16 00:25:38;;;;;;;44.42;27.52;;;;;;;;;;5031913;28;20061;-78
2022/03/16 00:28:07;;;;;;;43.80;28.02;;;;;;;;;;5023071;28;20113;-78
2022/03/16 00:30:34;;;;;;;47.40;33.72;;;;;;;;;;5035923;28;20048;-78
2022/03/16 00:33:00;;;;;;;42.85;29.45;;;;;;;;;;5031961;28;20339;-78
2022/03/16 00:35:26;;;;;;;51.75;35.25;;;;;;;;;;5016177;28;20057;-78
2022/03/16 00:37:52;;;;;;;47.72;31.33;;;;;;;;;;5015738;28;20110;-78
2022/03/16 00:40:19;;;;;;;50.55;31.67;;;;;;;;;;5014844;28;20135;-78
2022/03/16 00:42:45;;;;;;;45.05;31.65;;;;;;;;;;5035426;28;20056;-77
2022/03/16 00:45:11;;;;;;;40.20;29.48;;;;;;;;;;5031254;28;20091;-78
2022/03/16 00:47:38;;;;;;;50.67;32.67;;;;;;;;;;5031661;28;20068;-78
2022/03/16 00:50:05;;;;;;;42.88;29.85;;;;;;;;;;5028786;28;20045;-78
2022/03/16 00:52:33;;;;;;;39.88;27.92;;;;;;;;;;5015182;28;20496;-78
2022/03/16 00:55:02;;;;;;;37.97;27.58;;;;;;;;;;5015334;28;20181;-77
2022/03/16 00:57:28;;;;;;;44.60;29.58;;;;;;;;;;5020191;28;20057;-78
2022/03/16 00:59:58;;;;;;;44.17;30.30;;;;;;;;;;5015948;28;20048;-77
2022/03/16 01:02:24;;;;;;;51.55;35.55;;;10.90;99.90;;;;;;5028109;28;20057;-77
2022/03/16 01:04:50;;;;;;;51.65;32.95;;;;;;;;;;5011978;28;20053;-78
2022/03/16 01:07:16;;;;;;;46.45;33.30;;;;;;;;;;5028343;28;20053;-78
2022/03/16 01:09:42;;;;;;;41.35;29.23;;;;;;;;;;5023077;28;20465;-78
2022/03/16 01:12:14;;;;;;;41.85;30.38;;;;;;;;;;5013006;28;20132;-77
2022/03/16 01:14:40;;;;;;;41.15;31.13;;;;;;;;;;4987701;28;20125;-77
2022/03/16 01:17:06;;;;;;;43.53;28.42;;;;;;;;;;5026040;28;20063;-78
2022/03/16 01:19:34;;;;;;;39.17;27.35;;;;;;;;;;5028257;28;20053;-78
2022/03/16 01:22:04;;;;;;;42.60;28.52;;;;;;;;;;5027060;28;20053;-78
2022/03/16 01:24:31;;;;;;;39.88;28.58;;;;;;;;;;5027498;28;20452;-77
2022/03/16 01:26:57;;;;;;;51.65;31.08;;;;;;;;;;5026281;28;20407;-77
2022/03/16 01:29:27;;;;;;;40.13;27.55;;;;;;;;;;5027601;28;20077;-77
2022/03/16 01:31:53;;;;;;;44.75;29.65;;;;;;;;;;5011126;28;20058;-78
2022/03/16 01:34:20;;;;;;;40.55;29.65;;;;;;;;;;5028133;28;20064;-77
2022/03/16 01:36:48;;;;;;;47.67;33.45;;;;;;;;;;4992862;28;20125;-78
2022/03/16 01:39:15;;;;;;;45.70;29.73;;;;;;;;;;5029829;28;20192;-78
2022/03/16 01:41:42;;;;;;;48.72;31.05;;;;;;;;;;5021098;28;20649;-78
2022/03/16 01:44:09;;;;;;;47.22;33.13;;;;;;;;;;5010522;28;20312;-78
2022/03/16 01:46:35;;;;;;;46.38;30.08;;;;;;;;;;5009055;28;20054;-77
2022/03/16 01:49:01;;;;;;;43.53;29.42;;;;;;;;;;5019677;28;20103;-77
2022/03/16 01:51:28;;;;;;;47.10;32.15;;;;;;;;;;5028136;28;20270;-77
2022/03/16 01:53:55;;;;;;;46.97;31.67;;;;;;;;;;5011573;28;20351;-77
2022/03/16 01:56:21;;;;;;;45.95;31.50;;;;;;;;;;5029072;28;20037;-77
2022/03/16 01:58:47;;;;;;;50.60;32.50;;;;;;;;;;5018347;28;20187;-78
2022/03/16 02:01:14;;;;;;;42.75;29.67;;;;;;;;;;5014991;28;20052;-77
2022/03/16 02:03:42;;;;;;;43.97;30.63;;;;;;;;;;5014852;28;20612;-78
2022/03/16 02:06:09;;;;;;;45.20;30.33;;;;;;;;;;5027930;28;20042;-78
2022/03/16 02:08:37;;;;;;;43.80;30.63;;;;;;;;;;5028538;28;20056;-77
2022/03/16 02:11:04;;;;;;;46.75;30.00;;;;;;;;;;5027930;28;20518;-77
2022/03/16 02:13:34;;;;;;;47.80;32.20;;;;;;;;;;5027341;28;20390;-78
2022/03/16 02:16:02;;;;;;;45.97;33.20;;;;;;;;;;5027490;28;20050;-78
2022/03/16 02:18:28;;;;;;;45.00;30.88;;;;;;;;;;5010705;28;20052;-78
2022/03/16 02:20:55;;;;;;;45.00;29.33;;;;;;;;;;5035560;28;20060;-77
2022/03/16 02:23:21;;;;;;;51.22;30.60;;;;;;;;;;5024343;28;20050;-78
2022/03/16 02:25:48;;;;;;;47.63;30.45;;;;;;;;;;5027629;28;20497;-78
2022/03/16 02:28:14;;;;;;;54.65;29.40;;;;;;;;;;5023319;28;20053;-78
2022/03/16 02:30:40;;;;;;;48.78;30.27;;;;;;;;;;4997925;28;20449;-77
2022/03/16 02:33:10;;;;;;;43.60;30.55;;;;;;;;;;5027542;28;20054;-78
2022/03/16 02:35:39;;;;;;;49.28;30.90;;;;;;;;;;4993021;28;20050;-78
2022/03/16 02:38:08;;;;;;;45.72;30.95;;;;;;;;;;5024480;28;20061;-78
2022/03/16 02:40:34;;;;;;;46.53;30.20;;;;;;;;;;5008002;28;20165;-78
2022/03/16 02:43:01;;;;;;;44.50;31.23;;;;;;;;;;4991386;28;20057;-78
2022/03/16 02:45:28;;;;;;;48.72;30.23;;;;;;;;;;5011108;28;20080;-77
2022/03/16 02:47:55;;;;;;;45.95;30.67;;;;;;;;;;5028625;28;20076;-78
2022/03/16 02:50:21;;;;;;;55.13;31.60;;;;;;;;;;5008559;28;20133;-77
2022/03/16 02:52:47;;;;;;;48.80;32.60;;;;;;;;;;5027940;28;20068;-77
2022/03/16 02:55:14;;;;;;;44.88;32.17;;;;;;;;;;5011208;28;20068;-78
2022/03/16 02:57:43;;;;;;;48.35;32.83;;;;;;;;;;5029611;28;20120;-78
2022/03/16 03:00:09;;;;;;;47.38;33.28;;;;;;;;;;5029334;28;20088;-78
2022/03/16 03:02:37;;;;;;;48.58;30.10;;;;;;;;;;4997787;28;20077;-77
2022/03/16 03:05:03;;;;;;;50.30;32.70;;;;;;;;;;5030340;28;20514;-78
2022/03/16 03:07:29;;;;;;;47.00;31.33;;;;;;;;;;5023619;28;20054;-78
2022/03/16 03:09:55;;;;;;;48.78;33.28;;;;;;;;;;5030511;28;20084;-78
2022/03/16 03:12:24;;;;;;;41.90;29.33;;;;;;;;;;5014170;28;20445;-78
2022/03/16 03:14:50;;;;;;;51.70;31.50;;;;;;;;;;5029737;28;20052;-77
2022/03/16 03:17:16;;;;;;;45.28;30.70;;;;;;;;;;5013834;28;20081;-77
2022/03/16 03:19:43;;;;;;;41.13;29.58;;;;;;;;;;5030307;28;20354;-77
2022/03/16 03:22:10;;;;;;;47.13;30.52;;;;;;;;;;5030936;28;20088;-77
2022/03/16 03:24:36;;;;;;;41.92;28.40;;;;;;;;;;5011084;28;20062;-77
2022/03/16 03:27:02;;;;;;;47.65;29.98;;;;;;;;;;5030696;28;20208;-78
2022/03/16 03:29:29;;;;;;;47.97;31.63;;;;;;;;;;5030618;28;20100;-77
2022/03/16 03:31:55;;;;;;;44.15;32.42;;;;;;;;;;5030357;28;20131;-77
2022/03/16 03:34:21;;;;;;;48.85;32.65;;;;;;;;;;4993307;28;20098;-78
2022/03/16 03:36:48;;;;;;;49.60;31.75;;;;;;;;;;5025213;28;20049;-77
2022/03/16 03:39:14;;;;;;;47.47;29.80;;;;;;;;;;4997590;28;20057;-77
2022/03/16 03:41:40;;;;;;;46.03;31.48;;;;;;;;;;5030502;28;20045;-77
2022/03/16 03:44:06;;;;;;;46.42;30.67;;;;;;;;;;5030382;28;20123;-78
2022/03/16 03:46:35;;;;;;;44.10;29.52;;;;;;;;;;5030491;28;20045;-78
2022/03/16 03:49:02;;;;;;;43.53;29.15;;;;;;;;;;5013835;28;20057;-77
2022/03/16 03:51:28;;;;;;;51.72;32.85;;;;;;;;;;5029893;28;20080;-77
2022/03/16 03:53:54;;;;;;;45.78;31.15;;;;;;;;;;5013341;28;20053;-77
2022/03/16 03:56:23;;;;;;;45.00;29.67;;;;;;;;;;5030060;28;20434;-78
2022/03/16 03:58:49;;;;;;;36.92;29.30;;;;;;;;;;4996298;28;20049;-78
2022/03/16 04:01:18;;;;;;;39.05;27.02;;;;;;;;;;5029851;28;20080;-77
2022/03/16 04:03:45;;;;;;;51.33;29.67;;;;;;;;;;4999262;28;20180;-77
2022/03/16 04:06:12;;;;;;;46.60;30.50;;;;;;;;;;5030304;28;20057;-77
2022/03/16 04:08:42;;;;;;;41.58;30.17;;;;;;;;;;5032979;28;20098;-77
2022/03/16 04:11:11;;;;;;;46.38;29.35;;;;;;;;;;4997512;28;20493;-79
2022/03/16 04:13:38;;;;;;;47.75;28.33;;;;;;;;;;4976474;28;20123;-77
2022/03/16 04:16:10;;;;;;;43.83;29.52;;;;;;;;;;4992914;28;20112;-78
2022/03/16 04:18:37;;;;;;;40.45;27.98;;;;;;;;;;5029789;28;20123;-78
2022/03/16 04:21:07;;;;;;;48.33;30.67;;;;;;;;;;5021686;28;20067;-78
2022/03/16 04:23:33;;;;;;;45.97;30.13;;;;;;;;;;4991611;28;20053;-78
2022/03/16 04:26:04;;;;;;;40.88;29.75;;;;;;;;;;5030990;28;20051;-78
2022/03/16 04:28:30;;;;;;;46.28;28.55;;;;;;;;;;5008315;28;20042;-78
2022/03/16 04:30:57;;;;;;;42.55;30.05;;;;;;;;;;4995474;28;20135;-78
2022/03/16 04:33:23;;;;;;;39.70;29.25;;;;;;;;;;5030097;28;20056;-79
2022/03/16 04:35:49;;;;;;;41.88;27.85;;;;;;;;;;4997729;28;20128;-79
2022/03/16 04:38:15;;;;;;;43.83;28.67;;;;;;;;;;4996214;28;20064;-79
2022/03/16 04:40:41;;;;;;;40.40;27.80;;;;;;;;;;5006081;28;20057;-79
2022/03/16 04:43:11;;;;;;;42.42;29.88;;;;;;;;;;5031429;28;20056;-79
2022/03/16 04:45:39;;;;;;;38.58;27.48;;;;;;;;;;5031162;28;20049;-79
2022/03/16 04:48:07;;;;;;;45.60;30.77;;;;;;;;;;4984952;28;20120;-79
2022/03/16 04:50:34;;;;;;;43.85;29.23;;;6.70;99.90;;;;;;4989848;28;20050;-79
2022/03/16 04:53:00;;;;;;;40.10;29.02;;;;;;;;;;5026663;28;20049;-79
2022/03/16 04:55:27;;;;;;;46.65;31.15;;;;;;;;;;5013968;28;20489;-79
2022/03/16 04:57:53;;;;;;;45.75;30.75;;;;;;;;;;5030392;28;20053;-79
2022/03/16 05:00:19;;;;;;;49.63;31.08;;;;;;;;;;5030563;28;20053;-79
2022/03/16 05:02:46;;;;;;;48.60;30.48;;;;;;;;;;5013805;28;20151;-79
2022/03/16 05:05:12;;;;;;;48.55;31.90;;;;;;;;;;5014302;28;20355;-79
2022/03/16 05:07:39;;;;;;;45.00;29.65;;;;;;;;;;5022388;28;20540;-79
2022/03/16 05:10:06;;;;;;;42.67;28.75;;;;;;;;;;5014032;28;20080;-79
2022/03/16 05:12:42;;;;;;;41.58;30.33;;;;;;;;;;5013953;28;20501;-79
2022/03/16 05:15:10;;;;;;;41.47;29.35;;;;;;;;;;4997516;28;20051;-79
2022/03/16 05:17:41;;;;;;;45.50;30.23;;;;;;;;;;5021391;28;20053;-79
2022/03/16 05:20:09;;;;;;;41.72;30.67;;;;;;;;;;5029111;28;20100;-80
2022/03/16 05:22:48;;;;;;;43.22;29.70;;;;;;;;;;5017665;28;20130;-79
2022/03/16 05:25:19;;;;;;;48.20;31.27;;;;;;;;;;5029929;28;20166;-79
2022/03/16 05:27:48;;;;;;;41.15;30.02;;;;;;;;;;5028831;28;20049;-78
2022/03/16 05:30:15;;;;;;;46.35;30.00;;;;;;;;;;5029436;28;20053;-78
2022/03/16 05:32:43;;;;;;;40.70;28.35;;;;;;;;;;5032163;28;20396;-78
2022/03/16 05:35:10;;;;;;;39.15;29.58;;;;;;;;;;5027435;28;20474;-78
2022/03/16 05:37:39;;;;;;;42.05;29.50;;;;;;;;;;5027455;28;20397;-79
2022/03/16 05:40:06;;;;;;;47.45;28.77;;;;;;;;;;5014729;28;20496;-78
2022/03/16 05:42:32;;;;;;;43.58;31.38;;;;;;;;;;5023660;28;20526;-78
2022/03/16 05:44:59;;;;;;;46.53;28.80;;;;;;;;;;5029190;28;20067;-78
2022/03/16 05:47:25;;;;;;;50.78;29.55;;;;;;;;;;5012435;28;20438;-78
2022/03/16 05:49:52;;;;;;;48.33;30.35;;;;;;;;;;5034265;28;20044;-78
2022/03/16 05:52:21;;;;;;;40.22;30.52;;;;;;;;;;5003033;28;20068;-78
2022/03/16 05:54:51;;;;;;;45.00;30.30;;;;;;;;;;4981866;28;20394;-78
2022/03/16 05:57:18;;;;;;;41.88;28.30;;;;;;;;;;5027554;28;20128;-78
2022/03/16 05:59:45;;;;;;;41.20;27.77;;;;;;;;;;4993901;28;20138;-78
2022/03/16 06:02:11;;;;;;;42.35;28.80;;;;;;;;;;4976147;28;20567;-78
2022/03/16 06:04:38;;;;;;;49.65;31.35;;;;;;;;;;5018691;28;20062;-78
2022/03/16 06:07:08;;;;;;;40.50;27.92;;;;;;;;;;5018396;28;20529;-78
2022/03/16 06:09:35;;;;;;;44.33;30.08;;;;;;;;;;5022614;28;20130;-78
2022/03/16 06:12:02;;;;;;;44.55;29.10;;;;;;;;;;5020986;28;20041;-78
2022/03/16 06:14:29;;;;;;;43.47;29.00;;;;;;;;;;5008024;28;20085;-78
2022/03/16 06:16:58;;;;;;;45.45;29.58;;;;;;;;;;5027467;28;20786;-78
2022/03/16 06:19:24;;;;;;;45.45;29.45;;;;;;;;;;4984944;28;20057;-78
2022/03/16 06:21:50;;;;;;;47.38;28.50;;;;;;;;;;5018169;28;20152;-78
2022/03/16 06:24:16;;;;;;;41.42;30.67;;;;;;;;;;4986250;28;20088;-77
2022/03/16 06:26:43;;;;;;;44.28;29.60;;;;;;;;;;4991879;28;20049;-78
2022/03/16 06:29:10;;;;;;;43.63;29.80;;;;;;;;;;5020142;28;20049;-78
2022/03/16 06:31:37;;;;;;;41.22;28.13;;;;;;;;;;5021962;28;20053;-79
2022/03/16 06:34:03;;;;;;;39.25;27.75;;;;;;;;;;5020153;28;20481;-81
2022/03/16 06:36:35;;;;;;;43.00;29.35;;;;;;;;;;5021928;28;20068;-78
2022/03/16 06:39:01;;;;;;;43.40;29.53;;;;;;;;;;5026147;28;20049;-80
2022/03/16 06:41:27;;;;;;;43.15;27.65;;;;;;;;;;5031795;28;20403;-80
2022/03/16 06:43:54;;;;;;;43.38;29.00;;;;;;;;;;5006657;28;20041;-80
2022/03/16 06:46:20;;;;;;;41.25;27.33;;;;;;;;;;5030912;28;20049;-80
2022/03/16 06:48:46;;;;;;;41.40;27.58;;;;;;;;;;5009068;28;20056;-79
2022/03/16 06:51:12;;;;;;;45.40;30.02;;;;;;;;;;5039769;28;20045;-79
2022/03/16 06:53:38;;;;;;;39.20;28.40;;;;;;;;;;5019175;28;20075;-79
2022/03/16 06:56:04;;;;;;;41.10;28.98;;;;;;;;;;5031478;28;20058;-80
2022/03/16 06:58:33;;;;;;;41.55;27.67;;;;;;;;;;5052854;28;20050;-78
2022/03/16 07:00:59;;;;;;;44.05;30.15;;;;;;;;;;5031574;28;20057;-79
2022/03/16 07:03:30;;;;;;;44.08;27.85;;;;;;;;;;5033185;28;20481;-81
2022/03/16 07:05:56;;;;;;;42.67;29.45;;;;;;;;;;5000622;28;20059;-81
2022/03/16 07:08:23;;;;;;;40.08;27.50;;;;;;;;;;5032878;28;20080;-79
2022/03/16 07:10:49;;;;;;;42.72;28.40;;;;;;;;;;5014320;28;20111;-79
2022/03/16 07:13:16;;;;;;;41.72;30.02;;;;;;;;;;5008287;28;20082;-80
2022/03/16 07:15:43;;;;;;;37.85;27.73;;;;;;;;;;5008687;28;20129;-80
2022/03/16 07:18:13;;;;;;;46.78;30.05;;;;;;;;;;4993660;28;20056;-82
2022/03/16 07:20:39;;;;;;;40.15;28.38;;;;;;;;;;5023205;28;20053;-79
2022/03/16 07:23:05;;;;;;;42.15;29.25;;;;;;;;;;5032017;28;20081;-79
2022/03/16 07:25:32;;;;;;;42.55;29.75;;;;;;;;;;5033677;28;20083;-78
2022/03/16 07:27:58;;;;;;;40.28;29.40;;;;;;;;;;5032077;28;20068;-79
2022/03/16 07:30:25;;;;;;;45.08;30.45;;;;;;;;;;5030819;28;20120;-79
2022/03/16 07:32:51;;;;;;;45.65;32.13;;;;;;;;;;5027714;28;20041;-80
2022/03/16 07:35:17;;;;;;;42.53;32.35;;;;;;;;;;5015994;28;20100;-84
2022/03/16 07:37:44;;;;;;;43.55;33.88;;;;;;;;;;5000625;28;20048;-81
2022/03/16 07:40:11;;;;;;;44.78;31.60;;;;;;;;;;5030391;28;20052;-81
2022/03/16 07:42:37;;;;;;;43.20;32.83;;;;;;;;;;5012320;28;20052;-81
2022/03/16 07:45:04;;;;;;;43.35;33.20;;;;;;;;;;5031357;28;20448;-81
2022/03/16 07:47:31;;;;;;;42.05;31.48;;;;;;;;;;5032103;28;20076;-80
2022/03/16 07:49:57;;;;;;;43.03;30.90;;;;;;;;;;4994625;28;20439;-78
2022/03/16 07:52:24;;;;;;;46.97;33.05;;;;;;;;;;5008114;28;20056;-79
2022/03/16 07:54:51;;;;;;;43.63;31.98;;;;;;;;;;5016729;28;20131;-78
2022/03/16 07:57:19;;;;;;;47.95;33.67;;;;;;;;;;5029423;28;20076;-79
2022/03/16 07:59:45;;;;;;;40.20;32.25;;;;;;;;;;5030350;28;20048;-79
2022/03/16 08:02:18;;;;;;;40.90;32.83;;;;;;;;;;5030628;28;20053;-79
2022/03/16 08:04:44;;;;;;;43.55;32.00;;;;;;;;;;5017204;28;20049;-79
2022/03/16 08:07:10;;;;;;;47.20;34.50;;;;;;;;;;5029599;28;20060;-79
2022/03/16 08:09:36;;;;;;;42.28;33.38;;;;;;;;;;5013037;28;20046;-79
2022/03/16 08:12:03;;;;;;;46.25;32.58;;;5.60;99.90;;;;;;5012163;28;20046;-79
2022/03/16 08:14:29;;;;;;;40.38;30.20;;;6.70;99.90;;;;;;5030272;28;20188;-79
2022/03/16 08:16:55;;;;;;;42.33;29.48;;;6.80;99.90;;;;;;5013691;28;20137;-78
2022/03/16 08:19:21;;;;;;;39.00;30.48;;;6.90;99.90;;;;;;5028984;28;20052;-78
2022/03/16 08:21:50;;;;;;;44.35;31.23;;;6.90;99.90;;;;;;5008301;28;20052;-78
2022/03/16 08:24:16;;;;;;;41.80;29.10;;;7.00;99.90;;;;;;5028621;28;20445;-78
2022/03/16 08:26:42;;;;;;;38.45;28.25;;;7.00;99.90;;;;;;4995618;28;20050;-78
2022/03/16 08:29:08;;;;;;;38.00;26.80;;;7.10;99.90;;;;;;5011891;28;20057;-79
2022/03/16 08:31:34;;;;;;;38.90;24.70;;;7.20;99.90;;;;;;5028229;28;20042;-78
2022/03/16 08:34:01;;;;;;;36.95;24.23;;;7.20;99.90;;;;;;5028314;28;20046;-78
2022/03/16 08:36:28;;;;;;;30.25;21.73;;;7.30;99.90;;;;;;5028761;28;20617;-78
2022/03/16 08:38:57;;;;;;;33.08;24.63;;;7.40;99.90;;;;;;5011303;28;20147;-78
2022/03/16 08:41:23;;;;;;;34.05;22.95;;;7.50;99.90;;;;;;5023630;28;20266;-82
2022/03/16 08:43:48;;;;;;;24.45;17.40;;;7.60;99.90;;;;;;4979361;28;20171;-81
2022/03/16 08:46:14;;;;;;;23.33;18.15;;;7.70;99.90;;;;;;5012049;28;20171;-82
2022/03/16 08:48:40;;;;;;;26.40;18.38;;;7.80;99.90;;;;;;4994926;28;20060;-81
2022/03/16 08:51:08;;;;;;;25.33;18.45;;;8.00;99.90;;;;;;5015219;28;20045;-81
2022/03/16 08:53:37;;;;;;;22.65;17.52;;;8.10;99.90;;;;;;5005206;28;20528;-81
2022/03/16 08:56:03;;;;;;;26.50;18.77;;;8.10;99.90;;;;;;5011077;28;20061;-81
2022/03/16 08:58:29;;;;;;;24.13;17.20;;;8.20;99.90;;;;;;5011234;28;20049;-81
2022/03/16 09:00:55;;;;;;;32.60;19.00;;;8.20;99.90;;;;;;5011963;28;20501;-81
2022/03/16 09:03:21;;;;;;;25.00;17.33;;;8.30;99.90;;;;;;4975711;28;20060;-80
2022/03/16 09:05:48;;;;;;;24.55;16.92;;;;;;;;;;5007589;28;20124;-80
2022/03/16 09:08:15;;;;;;;25.55;18.20;;;;;;;;;;5010737;28;20076;-80
2022/03/16 09:10:42;;;;;;;23.05;16.30;;;;;;;;;;4978164;28;20097;-80
2022/03/16 09:13:08;;;;;;;26.67;18.83;;;;;;;;;;5011601;28;20140;-80
2022/03/16 09:15:41;;;;;;;29.88;18.10;;;;;;;;;;5019091;28;20241;-81
2022/03/16 09:18:09;;;;;;;27.63;18.65;;;;;;;;;;5012000;28;20064;-80
2022/03/16 09:20:35;;;;;;;20.15;15.32;;;;;;;;;;5011230;28;20095;-81
2022/03/16 09:23:01;;;;;;;26.13;18.30;;;;;;;;;;5010562;28;20037;-79
2022/03/16 09:25:31;;;;;;;25.85;16.65;;;;;;;;;;5027034;28;20092;-79
2022/03/16 09:27:58;;;;;;;28.65;17.15;;;;;;;;;;4994932;28;20057;-79
2022/03/16 09:30:24;;;;;;;26.58;18.05;;;;;;;;;;5010913;28;20399;-79
2022/03/16 09:32:57;;;;;;;23.92;18.13;;;;;;;;;;4983613;28;20045;-80
2022/03/16 09:35:23;;;;;;;;;;;;;;;;;;5010028;28;20053;-80
2022/03/16 09:37:50;;;;;;;29.77;19.25;;;;;;;;;;5027818;28;20266;-81
2022/03/16 09:40:22;;;;;;;24.45;16.60;;;;;;;;;;5026650;28;20168;-81
2022/03/16 09:42:48;;;;;;;25.47;17.90;;;;;;;;;;4994305;28;20124;-81
2022/03/16 09:45:21;;;;;;;24.35;16.73;;;;;;;;;;5025921;28;20049;-84
2022/03/16 09:47:47;;;;;;;;;;;;;;;;;;4999201;28;20050;-86
2022/03/16 09:50:14;;;;;;;26.70;16.75;;;;;;;;;;4993561;28;20003;-83
2022/03/16 09:52:40;;;;;;;26.67;16.73;;;;;;;;;;4984322;28;20080;-82
2022/03/16 09:55:07;;;;;;;25.35;17.10;;;;;;;;;;5009835;28;20054;-81
2022/03/16 09:57:33;;;;;;;25.75;15.90;;;;;;;;;;5010036;28;20084;-80
2022/03/16 10:00:02;;;;;;;27.38;17.45;;;;;;;;;;4992576;28;20045;-80
2022/03/16 10:02:28;;;;;;;30.00;16.48;;;;;;;;;;4990843;28;20154;-81
2022/03/16 10:04:54;;;;;;;27.42;16.60;;;;;;;;;;5017392;28;20041;-84
2022/03/16 10:07:34;;;;;;;21.70;15.40;;;;;;;;;;5026442;28;20050;-81
2022/03/16 10:15:36;;;;;;;24.00;15.27;;;;;;;;;;5012256;28;20045;-81
2022/03/16 10:18:03;;;;;;;17.52;12.57;;;;;;;;;;5009821;28;20059;-82
2022/03/16 10:20:37;;;;;;;21.25;13.20;;;;;;;;;;5025923;28;20064;-82
2022/03/16 10:23:14;;;;;;;16.75;11.82;;;;;;;;;;5008700;28;20049;-82
2022/03/16 10:25:42;;;;;;;18.83;12.68;;;;;;;;;;5009151;28;20219;-83
2022/03/16 10:28:14;;;;;;;18.08;13.32;;;;;;;;;;4997799;28;20057;-82
2022/03/16 10:30:49;;;;;;;16.13;12.05;;;;;;;;;;5006979;28;20041;-81
2022/03/16 10:33:16;;;;;;;18.95;12.07;;;;;;;;;;5008657;28;20426;-81
2022/03/16 10:36:03;;;;;;;15.40;11.55;;;;;;;;;;5009724;28;20127;-79
2022/03/16 10:38:30;;;;;;;15.27;10.32;;;;;;;;;;5011963;28;20440;-79
2022/03/16 10:41:10;;;;;;;15.00;9.77;;;;;;;;;;5022307;28;20115;-81
2022/03/16 10:46:40;;;;;;;17.58;11.43;;;;;;;;;;5022868;28;20398;-77
2022/03/16 10:49:12;;;;;;;15.27;10.93;;;;;;;;;;5002328;28;20117;-78
2022/03/16 10:51:39;;;;;;;16.83;11.70;;;;;;;;;;5024916;28;20252;-77
2022/03/16 10:54:06;;;;;;;16.20;10.52;;;;;;;;;;5024967;28;20202;-78
2022/03/16 10:56:32;;;;;;;20.15;8.70;;;;;;;;;;5027138;28;20085;-78
2022/03/16 10:58:59;;;;;;;13.55;9.70;;;;;;;;;;5027244;28;20584;-77
2022/03/16 11:01:27;;;;;;;17.52;9.82;;;;;;;;;;5019733;28;20502;-77
2022/03/16 11:03:55;;;;;;;15.68;10.35;;;;;;;;;;5024331;28;20609;-78
2022/03/16 11:06:21;;;;;;;16.75;11.10;;;;;;;;;;5006942;28;20049;-81
2022/03/16 11:08:51;;;;;;;15.98;10.57;;;;;;;;;;5008172;28;20095;-81
2022/03/16 11:14:03;;;;;;;16.95;9.80;;;;;;;;;;5025566;28;20133;-78
2022/03/16 11:16:30;;;;;;;16.85;9.95;;;;;;;;;;5018498;28;20096;-77
2022/03/16 11:18:57;;;;;;;16.60;10.25;;;;;;;;;;5028344;28;20124;-77
2022/03/16 11:21:27;;;;;;;14.07;9.80;;;;;;;;;;5029068;28;20049;-77
2022/03/16 11:26:48;;;;;;;11.50;8.52;;;;;;;;;;5013621;28;20061;-77
2022/03/16 11:29:23;;;;;;;18.58;8.85;;;;;;;;;;5023529;28;20050;-77
2022/03/16 11:31:49;;;;;;;14.43;9.10;;;;;;;;;;5002079;28;20050;-76
2022/03/16 11:34:23;;;;;;;15.73;9.60;;;8.40;99.90;;;;;;5012541;28;20053;-76
2022/03/16 11:37:11;;;;;;;13.13;8.82;;;;;;;;;;5014708;28;20049;-76
2022/03/16 11:39:42;;;;;;;11.35;8.13;;;;;;;;;;5009438;28;20054;-78
2022/03/16 11:42:09;;;;;;;11.88;7.65;;;;;;;;;;5033428;28;21025;-78
2022/03/16 11:44:39;;;;;;;11.07;7.80;;;;;;;;;;5019177;28;20157;-77
2022/03/16 11:47:13;;;;;;;12.13;8.40;;;;;;;;;;5023655;28;20513;-78
2022/03/16 11:49:45;;;;;;;12.65;8.10;;;;;;;;;;5018598;28;20081;-78
2022/03/16 11:52:12;;;;;;;10.35;7.25;;;;;;;;;;5021293;28;20077;-78
2022/03/16 11:54:46;;;;;;;12.75;8.55;;;;;;;;;;4989194;28;20050;-78
2022/03/16 11:57:13;;;;;;;12.02;8.32;;;;;;;;;;5030906;28;20042;-78
2022/03/16 11:59:44;;;;;;;13.88;7.10;;;;;;;;;;5028205;28;20049;-78
2022/03/16 12:02:13;;;;;;;10.13;7.57;;;;;;;;;;5015717;28;20542;-77
2022/03/16 12:04:42;;;;;;;13.52;8.50;;;12.40;96.40;;;;;;5019240;28;20054;-79
2022/03/16 12:07:18;;;;;;;12.00;8.63;;;;;;;;;;5025080;28;20049;-78
2022/03/16 12:09:49;;;;;;;11.95;8.80;;;;;;;;;;4986637;28;20046;-78
2022/03/16 12:15:09;;;;;;;15.70;9.38;;;;;;;;;;5018362;28;20045;-78
2022/03/16 12:17:37;;;;;;;13.15;9.57;;;;;;;;;;5002381;28;20046;-78
2022/03/16 12:20:36;;;;;;;16.98;11.52;;;;;;;;;;5023005;28;20045;-78
2022/03/16 12:23:05;;;;;;;16.13;10.00;;;;;;;;;;4967128;28;20107;-78
2022/03/16 12:25:32;;;;;;;18.42;10.55;;;;;;;;;;5018388;28;20049;-78
2022/03/16 12:30:48;;;;;;;17.83;10.23;;;;;;;;;;5023289;28;20049;-78
2022/03/16 12:33:22;;;;;;;12.57;8.05;;;;;;;;;;5008308;28;20128;-79
2022/03/16 12:36:11;;;;;;;15.82;9.45;;;;;;;;;;5018412;28;20049;-77
2022/03/16 12:38:39;;;;;;;16.48;9.60;;;;;;;;;;5022696;28;20052;-77
2022/03/16 12:43:54;;;;;;;13.20;8.18;;;;;;;;;;5023801;28;20115;-78
2022/03/16 12:46:24;;;;;;;10.40;7.80;;;;;;;;;;5034323;28;20077;-79
2022/03/16 12:48:54;;;;;;;12.15;7.80;;;;;;;;;;5019896;28;20053;-77
2022/03/16 12:51:38;;;;;;;14.77;7.18;;;;;;;;;;5024638;28;20037;-78
2022/03/16 12:54:06;;;;;;;15.63;7.97;;;;;;;;;;5001173;28;20049;-78
2022/03/16 12:56:33;;;;;;;9.40;7.55;;;;;;;;;;5022976;28;20057;-78
2022/03/16 12:58:59;;;;;;;12.15;7.60;;;;;;;;;;5038168;28;20061;-78
2022/03/16 13:01:27;;;;;;;12.98;8.48;;;;;;;;;;5011905;28;20054;-78
2022/03/16 13:04:04;;;;;;;13.25;8.32;;;;;;;;;;5021104;28;20072;-77
2022/03/16 13:06:36;;;;;;;12.73;8.27;;;;;;;;;;5018748;28;20056;-83
2022/03/16 13:09:09;;;;;;;11.30;7.25;;;13.00;94.50;;;;;;5016606;28;20204;-83
2022/03/16 13:11:38;;;;;;;10.48;7.82;;;;;;;;;;4991457;28;20133;-82
2022/03/16 13:14:10;;;;;;;11.65;7.97;;;;;;;;;;5005741;28;20053;-82
2022/03/16 13:16:47;;;;;;;12.95;8.82;;;;;;;;;;5006155;28;20100;-82
2022/03/16 13:19:24;;;;;;;13.27;7.43;;;;;;;;;;5041351;28;20045;-82
2022/03/16 13:22:10;;;;;;;15.77;9.00;;;;;;;;;;5009510;28;20045;-82
2022/03/16 13:24:41;;;;;;;14.50;8.73;;;;;;;;;;5028457;28;20096;-82
2022/03/16 13:27:08;;;;;;;13.95;8.88;;;;;;;;;;5025776;28;20362;-82
2022/03/16 13:29:43;;;;;;;14.45;9.07;;;14.20;85.40;;;;;;4997896;28;20297;-82
2022/03/16 13:32:09;;;;;;;15.25;9.52;;;14.10;84.20;;;;;;5002708;28;20041;-82
2022/03/16 13:34:36;;;;;;;13.80;9.15;;;;;;;;;;5028058;28;20045;-82
2022/03/16 13:37:19;;;;;;;14.93;8.48;;;;;;;;;;4994572;28;20579;-82
2022/03/16 13:39:58;;;;;;;13.68;9.60;;;;;;;;;;4997964;28;20140;-82
2022/03/16 13:42:28;;;;;;;16.13;10.40;;;;;;;;;;5026238;28;20045;-82
2022/03/16 13:45:09;;;;;;;12.82;9.50;;;;;;;;;;4994549;28;20061;-82
2022/03/16 13:47:37;;;;;;;13.35;8.30;;;;;;;;;;5033576;28;20062;-82
2022/03/16 13:50:03;;;;;;;15.52;10.77;;;;;;;;;;5019962;28;20100;-82
2022/03/16 13:52:41;;;;;;;17.05;11.45;;;;;;;;;;4994378;28;20304;-82
2022/03/16 13:55:11;;;;;;;16.20;10.65;;;;;;;;;;5009679;28;20116;-82
2022/03/16 13:57:42;;;;;;;16.25;9.63;;;;;;;;;;4993680;28;20050;-82
2022/03/16 14:00:13;;;;;;;14.70;9.82;;;14.10;85.20;;;;;;4993490;28;20221;-82
2022/03/16 14:02:42;;;;;;;17.80;11.15;;;14.00;86.30;;;;;;5010775;28;20083;-82
2022/03/16 14:05:23;;;;;;;17.48;10.77;;;14.00;86.60;;;;;;4987754;28;20068;-82
2022/03/16 14:07:53;;;;;;;16.55;11.18;;;14.10;86.40;;;;;;5010218;28;20057;-82
2022/03/16 14:10:26;;;;;;;14.75;10.38;;;;;;;;;;5000920;28;20045;-82
2022/03/16 14:13:03;;;;;;;17.23;10.40;;;;;;;;;;5029802;28;20161;-82
2022/03/16 14:15:29;;;;;;;16.35;10.93;;;;;;;;;;4977745;28;20151;-82
2022/03/16 14:17:58;;;;;;;15.40;11.07;;;;;;;;;;5013155;28;20150;-82
2022/03/16 14:20:27;;;;;;;16.05;11.60;;;;;;;;;;5010405;28;20129;-82
2022/03/16 14:22:54;;;;;;;16.55;12.10;;;;;;;;;;4995275;28;20049;-82
2022/03/16 14:25:30;;;;;;;17.45;11.20;;;;;;;;;;5027496;28;20102;-82
2022/03/16 14:28:00;;;;;;;16.15;11.32;;;;;;;;;;4977254;28;20137;-82
2022/03/16 14:30:37;;;;;;;16.35;10.88;;;;;;;;;;5009135;28;20083;-82
2022/03/16 14:33:10;;;;;;;16.75;11.30;;;;;;;;;;5026110;28;20108;-82
2022/03/16 14:35:40;;;;;;;15.23;10.10;;;;;;;;;;5025974;28;20127;-82
2022/03/16 14:38:07;;;;;;;16.48;11.38;;;;;;;;;;5002237;28;20041;-82